Big Piney River (Missouri), Fort Leonard Wood (06930060)

StateMissouriLatestGood (1110 cfs)
RiverBig Piney RiverRatingObservedEstimated
Updated2021-04-10 21:00 (1 hour ago)Flood - The river is flooding. Obstacles can be treacherous or deadly. The river should be avoided at this stage for casual trips and definitely for the inexperienced. Trips should be attempted only with protective gear and equipment.Flood(none)3337
Discharge1110 cfs (median: 627 cfs)High - The river is high and potentially dangerous, especially for the young and / or inexperienced. Normal stream obstacles are sometimes difficult to navigate. Extended distances can be attempted, but canoe travel may not be advisable.High(none)1572
Height3.7 feetGood - Conditions are ideal for a canoe or kayak. Boats typically will drag on fewer than one-quarter of riffles, if at all, and portages are unnecessary or rare. Normal float lengths can be attempted without a problem.Good(none)673
TrendRising (rising over 24 hours)Low - River is low but can still be floated. Some riffles are okay but most come with significant dragging and might need a portage. Float lengths should be reduced to accommodate low flow, dragging, and portages.Low(none)395
USGSExternal icon USGS Site (External icon Google Maps)Poor - River is too low to float comfortably. Most or all riffles will drag or must be portaged and some obstacles (such as slick shelf rock) cause undue problems. Avoid the river at this stage for casual paddling trips.Poor(none)208

Trending Data

Plot Image

Trips for Big Piney River (Missouri), Fort Leonard Wood (06930060)

DateStartEndDistanceConditionDischargeHeightFishingDetails

A total of 0 rows are displayed.

Condition Descriptions

Fishing Conditions

Fish Species

Notes

Classic Trip List

The classic River Trips application is still available for use. It is updated with the new system using a data retrofit. It is no longer maintained. The original River Trips application is no longer updated (as of 1 Dec 2016) but can be checked for errors or for the condition of the data before it was converted to the new system.

Gauge Data Table

ObservationHeightDischargeMaximum
Discharge
Minimum
Discharge
Mean
Discharge
P05P10P20P25P50
(Median)
P75P80P90P95
2021-04-10 21:00 3.70 1110 4930 (2008) 208 (2000) 861 212 256 346 396 627 917 991 1370 4570
2021-04-10 20:00 3.69 1100 4930 (2008) 208 (2000) 861 212 256 346 396 627 917 991 1370 4570
2021-04-10 19:00 3.72 1130 4930 (2008) 208 (2000) 861 212 256 346 396 627 917 991 1370 4570
2021-04-10 18:00 3.73 1130 4930 (2008) 208 (2000) 861 212 256 346 396 627 917 991 1370 4570
2021-04-10 17:00 3.74 1140 4930 (2008) 208 (2000) 861 212 256 346 396 627 917 991 1370 4570
2021-04-10 16:00 3.75 1150 4930 (2008) 208 (2000) 861 212 256 346 396 627 917 991 1370 4570
2021-04-10 15:00 3.78 1170 4930 (2008) 208 (2000) 861 212 256 346 396 627 917 991 1370 4570
2021-04-10 14:00 3.73 1130 4930 (2008) 208 (2000) 861 212 256 346 396 627 917 991 1370 4570
2021-04-10 13:00 3.82 1200 4930 (2008) 208 (2000) 861 212 256 346 396 627 917 991 1370 4570
2021-04-10 12:00 3.76 1150 4930 (2008) 208 (2000) 861 212 256 346 396 627 917 991 1370 4570
2021-04-10 11:00 3.73 1130 4930 (2008) 208 (2000) 861 212 256 346 396 627 917 991 1370 4570
2021-04-10 10:00 3.62 1060 4930 (2008) 208 (2000) 861 212 256 346 396 627 917 991 1370 4570
2021-04-10 09:00 3.60 1040 4930 (2008) 208 (2000) 861 212 256 346 396 627 917 991 1370 4570
2021-04-10 08:00 3.50 976 4930 (2008) 208 (2000) 861 212 256 346 396 627 917 991 1370 4570
2021-04-10 07:00 3.40 914 4930 (2008) 208 (2000) 861 212 256 346 396 627 917 991 1370 4570
2021-04-10 06:00 3.38 901 4930 (2008) 208 (2000) 861 212 256 346 396 627 917 991 1370 4570
2021-04-10 05:00 3.33 871 4930 (2008) 208 (2000) 861 212 256 346 396 627 917 991 1370 4570
2021-04-10 04:00 3.23 814 4930 (2008) 208 (2000) 861 212 256 346 396 627 917 991 1370 4570
2021-04-10 03:00 3.21 802 4930 (2008) 208 (2000) 861 212 256 346 396 627 917 991 1370 4570
2021-04-10 02:00 3.14 764 4930 (2008) 208 (2000) 861 212 256 346 396 627 917 991 1370 4570
2021-04-10 01:00 3.05 717 4930 (2008) 208 (2000) 861 212 256 346 396 627 917 991 1370 4570
2021-04-10 00:00 3.04 712 4930 (2008) 208 (2000) 861 212 256 346 396 627 917 991 1370 4570
2021-04-09 23:00 3.06 722 2190 (2002) 211 (2000) 798 215 263 359 411 578 1030 1170 1880 2170
2021-04-09 22:00 3.07 727 2190 (2002) 211 (2000) 798 215 263 359 411 578 1030 1170 1880 2170
2021-04-09 21:00 3.06 722 2190 (2002) 211 (2000) 798 215 263 359 411 578 1030 1170 1880 2170
2021-04-09 20:00 3.09 737 2190 (2002) 211 (2000) 798 215 263 359 411 578 1030 1170 1880 2170
2021-04-09 19:00 3.08 732 2190 (2002) 211 (2000) 798 215 263 359 411 578 1030 1170 1880 2170
2021-04-09 18:00 3.09 737 2190 (2002) 211 (2000) 798 215 263 359 411 578 1030 1170 1880 2170
2021-04-09 17:00 3.08 732 2190 (2002) 211 (2000) 798 215 263 359 411 578 1030 1170 1880 2170
2021-04-09 16:00 3.04 712 2190 (2002) 211 (2000) 798 215 263 359 411 578 1030 1170 1880 2170
2021-04-09 15:00 3.07 727 2190 (2002) 211 (2000) 798 215 263 359 411 578 1030 1170 1880 2170
2021-04-09 14:00 3.11 748 2190 (2002) 211 (2000) 798 215 263 359 411 578 1030 1170 1880 2170
2021-04-09 13:00 3.09 737 2190 (2002) 211 (2000) 798 215 263 359 411 578 1030 1170 1880 2170
2021-04-09 12:00 3.11 748 2190 (2002) 211 (2000) 798 215 263 359 411 578 1030 1170 1880 2170
2021-04-09 11:00 3.12 753 2190 (2002) 211 (2000) 798 215 263 359 411 578 1030 1170 1880 2170
2021-04-09 10:00 3.09 737 2190 (2002) 211 (2000) 798 215 263 359 411 578 1030 1170 1880 2170
2021-04-09 09:00 3.15 769 2190 (2002) 211 (2000) 798 215 263 359 411 578 1030 1170 1880 2170
2021-04-09 08:00 3.09 737 2190 (2002) 211 (2000) 798 215 263 359 411 578 1030 1170 1880 2170
2021-04-09 07:00 3.15 769 2190 (2002) 211 (2000) 798 215 263 359 411 578 1030 1170 1880 2170
2021-04-09 06:00 3.08 732 2190 (2002) 211 (2000) 798 215 263 359 411 578 1030 1170 1880 2170
2021-04-09 05:00 3.09 737 2190 (2002) 211 (2000) 798 215 263 359 411 578 1030 1170 1880 2170
2021-04-09 04:00 3.06 722 2190 (2002) 211 (2000) 798 215 263 359 411 578 1030 1170 1880 2170
2021-04-09 03:00 3.12 753 2190 (2002) 211 (2000) 798 215 263 359 411 578 1030 1170 1880 2170
2021-04-09 02:00 3.10 743 2190 (2002) 211 (2000) 798 215 263 359 411 578 1030 1170 1880 2170
2021-04-09 01:00 3.07 727 2190 (2002) 211 (2000) 798 215 263 359 411 578 1030 1170 1880 2170
2021-04-09 00:00 3.10 743 2190 (2002) 211 (2000) 798 215 263 359 411 578 1030 1170 1880 2170
2021-04-08 23:00 3.09 737 1650 (2014) 217 (2000) 762 222 272 365 423 606 1030 1180 1580 1640
2021-04-08 22:00 3.09 737 1650 (2014) 217 (2000) 762 222 272 365 423 606 1030 1180 1580 1640
2021-04-08 21:00 3.10 743 1650 (2014) 217 (2000) 762 222 272 365 423 606 1030 1180 1580 1640
2021-04-08 20:00 3.13 759 1650 (2014) 217 (2000) 762 222 272 365 423 606 1030 1180 1580 1640
2021-04-08 19:00 3.12 753 1650 (2014) 217 (2000) 762 222 272 365 423 606 1030 1180 1580 1640
2021-04-08 18:00 3.12 753 1650 (2014) 217 (2000) 762 222 272 365 423 606 1030 1180 1580 1640
2021-04-08 17:00 3.07 727 1650 (2014) 217 (2000) 762 222 272 365 423 606 1030 1180 1580 1640
2021-04-08 16:00 3.08 732 1650 (2014) 217 (2000) 762 222 272 365 423 606 1030 1180 1580 1640
2021-04-08 15:00 3.08 732 1650 (2014) 217 (2000) 762 222 272 365 423 606 1030 1180 1580 1640
2021-04-08 14:00 3.06 722 1650 (2014) 217 (2000) 762 222 272 365 423 606 1030 1180 1580 1640
2021-04-08 13:00 3.07 727 1650 (2014) 217 (2000) 762 222 272 365 423 606 1030 1180 1580 1640
2021-04-08 12:00 3.12 753 1650 (2014) 217 (2000) 762 222 272 365 423 606 1030 1180 1580 1640
2021-04-08 11:00 3.09 737 1650 (2014) 217 (2000) 762 222 272 365 423 606 1030 1180 1580 1640
2021-04-08 10:00 3.08 692 1650 (2014) 217 (2000) 762 222 272 365 423 606 1030 1180 1580 1640
2021-04-08 09:00 3.08 692 1650 (2014) 217 (2000) 762 222 272 365 423 606 1030 1180 1580 1640
2021-04-08 08:00 3.13 718 1650 (2014) 217 (2000) 762 222 272 365 423 606 1030 1180 1580 1640
2021-04-08 07:00 3.08 692 1650 (2014) 217 (2000) 762 222 272 365 423 606 1030 1180 1580 1640
2021-04-08 06:00 3.11 708 1650 (2014) 217 (2000) 762 222 272 365 423 606 1030 1180 1580 1640
2021-04-08 05:45 3.14 723 1650 (2014) 217 (2000) 762 222 272 365 423 606 1030 1180 1580 1640
2021-04-08 05:00 3.15 728 1650 (2014) 217 (2000) 762 222 272 365 423 606 1030 1180 1580 1640
2021-04-08 04:00 3.11 708 1650 (2014) 217 (2000) 762 222 272 365 423 606 1030 1180 1580 1640
2021-04-08 03:00 3.13 718 1650 (2014) 217 (2000) 762 222 272 365 423 606 1030 1180 1580 1640
2021-04-08 02:00 3.12 713 1650 (2014) 217 (2000) 762 222 272 365 423 606 1030 1180 1580 1640
2021-04-08 01:00 3.11 708 1650 (2014) 217 (2000) 762 222 272 365 423 606 1030 1180 1580 1640
2021-04-08 00:00 3.15 728 1650 (2014) 217 (2000) 762 222 272 365 423 606 1030 1180 1580 1640
2021-04-07 23:00 3.11 708 2290 (2017) 224 (2000) 799 230 284 375 431 621 1090 1170 1800 2250
2021-04-07 22:00 3.11 708 2290 (2017) 224 (2000) 799 230 284 375 431 621 1090 1170 1800 2250
2021-04-07 21:00 3.14 723 2290 (2017) 224 (2000) 799 230 284 375 431 621 1090 1170 1800 2250
2021-04-07 18:00 3.10 702 2290 (2017) 224 (2000) 799 230 284 375 431 621 1090 1170 1800 2250
2021-04-07 17:00 3.06 682 2290 (2017) 224 (2000) 799 230 284 375 431 621 1090 1170 1800 2250
2021-04-07 16:00 3.04 672 2290 (2017) 224 (2000) 799 230 284 375 431 621 1090 1170 1800 2250
2021-04-07 15:00 3.12 713 2290 (2017) 224 (2000) 799 230 284 375 431 621 1090 1170 1800 2250
2021-04-07 14:00 3.11 708 2290 (2017) 224 (2000) 799 230 284 375 431 621 1090 1170 1800 2250
2021-04-07 13:00 3.10 702 2290 (2017) 224 (2000) 799 230 284 375 431 621 1090 1170 1800 2250
2021-04-07 12:00 3.05 677 2290 (2017) 224 (2000) 799 230 284 375 431 621 1090 1170 1800 2250
2021-04-07 11:00 3.09 697 2290 (2017) 224 (2000) 799 230 284 375 431 621 1090 1170 1800 2250
2021-04-07 10:00 3.13 718 2290 (2017) 224 (2000) 799 230 284 375 431 621 1090 1170 1800 2250
2021-04-07 09:00 3.16 734 2290 (2017) 224 (2000) 799 230 284 375 431 621 1090 1170 1800 2250
2021-04-07 08:00 3.08 692 2290 (2017) 224 (2000) 799 230 284 375 431 621 1090 1170 1800 2250
2021-04-07 07:00 3.09 697 2290 (2017) 224 (2000) 799 230 284 375 431 621 1090 1170 1800 2250
2021-04-07 06:00 3.05 677 2290 (2017) 224 (2000) 799 230 284 375 431 621 1090 1170 1800 2250
2021-04-07 05:00 3.11 708 2290 (2017) 224 (2000) 799 230 284 375 431 621 1090 1170 1800 2250
2021-04-07 04:00 3.11 708 2290 (2017) 224 (2000) 799 230 284 375 431 621 1090 1170 1800 2250
2021-04-07 03:00 3.12 713 2290 (2017) 224 (2000) 799 230 284 375 431 621 1090 1170 1800 2250
2021-04-07 02:00 3.13 718 2290 (2017) 224 (2000) 799 230 284 375 431 621 1090 1170 1800 2250
2021-04-07 01:00 3.09 697 2290 (2017) 224 (2000) 799 230 284 375 431 621 1090 1170 1800 2250
2021-04-07 00:00 3.12 713 2290 (2017) 224 (2000) 799 230 284 375 431 621 1090 1170 1800 2250

A total of 93 rows are displayed for years 2000 through 2020.